sensor_id;sensor_type;location;lat;lon;timestamp;P1;durP1;ratioP1;P2;durP2;ratioP2
2884;SDS011;54691;48.262;11.586;2022-11-20T00:06:31;4.05;;;1.85;;
2884;SDS011;54691;48.262;11.586;2022-11-20T00:13:28;3.08;;;1.65;;
2884;SDS011;54691;48.262;11.586;2022-11-20T00:20:25;3.65;;;1.67;;
2884;SDS011;54691;48.262;11.586;2022-11-20T00:27:22;6.00;;;2.67;;
2884;SDS011;54691;48.262;11.586;2022-11-20T00:34:19;4.17;;;2.00;;
2884;SDS011;54691;48.262;11.586;2022-11-20T00:41:16;8.50;;;3.08;;
2884;SDS011;54691;48.262;11.586;2022-11-20T00:48:13;2.72;;;1.60;;
2884;SDS011;54691;48.262;11.586;2022-11-20T00:55:10;7.85;;;2.30;;
2884;SDS011;54691;48.262;11.586;2022-11-20T01:02:07;6.53;;;2.02;;
2884;SDS011;54691;48.262;11.586;2022-11-20T01:09:05;5.00;;;2.15;;
2884;SDS011;54691;48.262;11.586;2022-11-20T01:23:03;6.72;;;2.22;;
2884;SDS011;54691;48.262;11.586;2022-11-20T01:30:00;6.20;;;2.37;;
2884;SDS011;54691;48.262;11.586;2022-11-20T01:36:57;4.78;;;2.00;;
2884;SDS011;54691;48.262;11.586;2022-11-20T01:47:35;4.67;;;1.82;;
2884;SDS011;54691;48.262;11.586;2022-11-20T01:51:06;6.65;;;2.60;;
2884;SDS011;54691;48.262;11.586;2022-11-20T01:58:03;6.03;;;2.37;;
2884;SDS011;54691;48.262;11.586;2022-11-20T02:05:02;5.08;;;1.72;;
2884;SDS011;54691;48.262;11.586;2022-11-20T02:11:59;4.53;;;2.30;;
2884;SDS011;54691;48.262;11.586;2022-11-20T02:18:57;4.58;;;1.80;;
2884;SDS011;54691;48.262;11.586;2022-11-20T02:25:55;4.42;;;1.98;;
2884;SDS011;54691;48.262;11.586;2022-11-20T02:32:54;3.67;;;1.57;;
2884;SDS011;54691;48.262;11.586;2022-11-20T02:39:51;3.08;;;1.90;;
2884;SDS011;54691;48.262;11.586;2022-11-20T02:46:48;5.58;;;1.90;;
2884;SDS011;54691;48.262;11.586;2022-11-20T02:53:45;2.10;;;1.57;;
2884;SDS011;54691;48.262;11.586;2022-11-20T03:00:41;5.33;;;1.95;;
2884;SDS011;54691;48.262;11.586;2022-11-20T03:07:38;4.62;;;2.08;;
2884;SDS011;54691;48.262;11.586;2022-11-20T03:14:36;8.15;;;3.47;;
2884;SDS011;54691;48.262;11.586;2022-11-20T03:21:33;5.50;;;2.45;;
2884;SDS011;54691;48.262;11.586;2022-11-20T03:28:31;5.62;;;2.40;;
2884;SDS011;54691;48.262;11.586;2022-11-20T03:35:28;12.20;;;3.47;;
2884;SDS011;54691;48.262;11.586;2022-11-20T03:42:25;5.55;;;2.05;;
2884;SDS011;54691;48.262;11.586;2022-11-20T03:46:11;5.97;;;2.90;;
2884;SDS011;54691;48.262;11.586;2022-11-20T03:53:08;4.95;;;2.52;;
2884;SDS011;54691;48.262;11.586;2022-11-20T04:00:06;3.05;;;1.42;;
2884;SDS011;54691;48.262;11.586;2022-11-20T04:07:03;2.83;;;1.67;;
2884;SDS011;54691;48.262;11.586;2022-11-20T04:14:01;3.42;;;1.87;;
2884;SDS011;54691;48.262;11.586;2022-11-20T04:20:58;4.08;;;1.65;;
2884;SDS011;54691;48.262;11.586;2022-11-20T04:27:55;3.05;;;1.20;;
2884;SDS011;54691;48.262;11.586;2022-11-20T04:34:55;3.98;;;1.37;;
2884;SDS011;54691;48.262;11.586;2022-11-20T04:41:52;4.70;;;1.57;;
2884;SDS011;54691;48.262;11.586;2022-11-20T04:48:51;3.50;;;1.20;;
2884;SDS011;54691;48.262;11.586;2022-11-20T04:55:48;2.50;;;1.75;;
2884;SDS011;54691;48.262;11.586;2022-11-20T05:02:45;7.05;;;1.07;;
2884;SDS011;54691;48.262;11.586;2022-11-20T05:09:42;4.47;;;1.70;;
2884;SDS011;54691;48.262;11.586;2022-11-20T05:16:39;1.57;;;1.30;;
2884;SDS011;54691;48.262;11.586;2022-11-20T05:23:36;2.80;;;1.52;;
2884;SDS011;54691;48.262;11.586;2022-11-20T05:30:34;5.80;;;1.92;;
2884;SDS011;54691;48.262;11.586;2022-11-20T05:37:31;2.87;;;1.40;;
2884;SDS011;54691;48.262;11.586;2022-11-20T05:44:28;4.70;;;1.62;;
2884;SDS011;54691;48.262;11.586;2022-11-20T05:51:25;1.77;;;1.15;;
2884;SDS011;54691;48.262;11.586;2022-11-20T05:58:22;3.95;;;1.67;;
2884;SDS011;54691;48.262;11.586;2022-11-20T06:05:19;3.00;;;1.45;;
2884;SDS011;54691;48.262;11.586;2022-11-20T06:12:16;3.87;;;1.40;;
2884;SDS011;54691;48.262;11.586;2022-11-20T06:19:13;3.33;;;2.00;;
2884;SDS011;54691;48.262;11.586;2022-11-20T06:26:11;5.95;;;1.30;;
2884;SDS011;54691;48.262;11.586;2022-11-20T06:33:09;2.50;;;1.52;;
2884;SDS011;54691;48.262;11.586;2022-11-20T06:40:06;2.40;;;1.40;;
2884;SDS011;54691;48.262;11.586;2022-11-20T06:47:15;2.00;;;1.22;;
2884;SDS011;54691;48.262;11.586;2022-11-20T06:50:44;2.12;;;1.25;;
2884;SDS011;54691;48.262;11.586;2022-11-20T06:57:41;1.52;;;1.07;;
2884;SDS011;54691;48.262;11.586;2022-11-20T07:04:40;2.55;;;1.40;;
2884;SDS011;54691;48.262;11.586;2022-11-20T07:11:37;1.98;;;1.17;;
2884;SDS011;54691;48.262;11.586;2022-11-20T07:18:35;3.50;;;1.20;;
2884;SDS011;54691;48.262;11.586;2022-11-20T07:25:32;1.77;;;1.17;;
2884;SDS011;54691;48.262;11.586;2022-11-20T07:32:29;2.60;;;1.50;;
2884;SDS011;54691;48.262;11.586;2022-11-20T07:39:28;2.30;;;1.10;;
2884;SDS011;54691;48.262;11.586;2022-11-20T07:46:25;1.72;;;1.10;;
2884;SDS011;54691;48.262;11.586;2022-11-20T07:53:22;2.77;;;1.32;;
2884;SDS011;54691;48.262;11.586;2022-11-20T08:00:19;2.52;;;1.20;;
2884;SDS011;54691;48.262;11.586;2022-11-20T08:07:16;1.92;;;1.10;;
2884;SDS011;54691;48.262;11.586;2022-11-20T08:14:15;2.05;;;1.62;;
2884;SDS011;54691;48.262;11.586;2022-11-20T08:21:12;2.50;;;1.50;;
2884;SDS011;54691;48.262;11.586;2022-11-20T08:28:09;3.87;;;1.55;;
2884;SDS011;54691;48.262;11.586;2022-11-20T08:35:06;4.80;;;1.98;;
2884;SDS011;54691;48.262;11.586;2022-11-20T08:42:06;2.92;;;1.27;;
2884;SDS011;54691;48.262;11.586;2022-11-20T08:49:18;1.85;;;1.17;;
2884;SDS011;54691;48.262;11.586;2022-11-20T08:56:02;2.52;;;1.22;;
2884;SDS011;54691;48.262;11.586;2022-11-20T09:03:00;3.42;;;1.40;;
2884;SDS011;54691;48.262;11.586;2022-11-20T09:10:00;3.30;;;1.85;;
2884;SDS011;54691;48.262;11.586;2022-11-20T09:16:59;2.62;;;1.40;;
2884;SDS011;54691;48.262;11.586;2022-11-20T09:23:58;4.83;;;1.65;;
2884;SDS011;54691;48.262;11.586;2022-11-20T09:30:57;9.48;;;1.40;;
2884;SDS011;54691;48.262;11.586;2022-11-20T09:37:54;2.62;;;0.90;;
2884;SDS011;54691;48.262;11.586;2022-11-20T09:44:58;2.25;;;0.80;;
2884;SDS011;54691;48.262;11.586;2022-11-20T09:59:02;1.57;;;0.85;;
2884;SDS011;54691;48.262;11.586;2022-11-20T10:05:59;3.05;;;1.00;;
2884;SDS011;54691;48.262;11.586;2022-11-20T10:27:37;2.05;;;0.90;;
2884;SDS011;54691;48.262;11.586;2022-11-20T10:31:40;1.02;;;0.70;;
2884;SDS011;54691;48.262;11.586;2022-11-20T11:03:39;1.00;;;0.90;;
2884;SDS011;54691;48.262;11.586;2022-11-20T11:14:13;0.62;;;0.60;;
2884;SDS011;54691;48.262;11.586;2022-11-20T11:21:10;2.37;;;0.78;;
2884;SDS011;54691;48.262;11.586;2022-11-20T11:32:02;2.85;;;0.60;;
2884;SDS011;54691;48.262;11.586;2022-11-20T11:42:41;0.30;;;0.30;;
2884;SDS011;54691;48.262;11.586;2022-11-20T11:46:32;0.70;;;0.70;;
2884;SDS011;54691;48.262;11.586;2022-11-20T11:50:07;0.60;;;0.47;;
2884;SDS011;54691;48.262;11.586;2022-11-20T12:00:45;1.27;;;0.60;;
2884;SDS011;54691;48.262;11.586;2022-11-20T12:07:55;1.30;;;0.70;;
2884;SDS011;54691;48.262;11.586;2022-11-20T12:18:23;2.72;;;1.17;;
2884;SDS011;54691;48.262;11.586;2022-11-20T12:25:24;1.07;;;0.55;;
2884;SDS011;54691;48.262;11.586;2022-11-20T12:36:27;1.25;;;1.12;;
2884;SDS011;54691;48.262;11.586;2022-11-20T12:40:20;1.22;;;0.50;;
2884;SDS011;54691;48.262;11.586;2022-11-20T13:09:45;0.98;;;0.50;;
2884;SDS011;54691;48.262;11.586;2022-11-20T13:20:17;0.42;;;0.40;;
2884;SDS011;54691;48.262;11.586;2022-11-20T13:30:52;2.22;;;0.70;;
2884;SDS011;54691;48.262;11.586;2022-11-20T13:38:12;3.17;;;0.78;;
2884;SDS011;54691;48.262;11.586;2022-11-20T13:41:36;1.10;;;0.72;;
2884;SDS011;54691;48.262;11.586;2022-11-20T13:48:39;1.57;;;0.72;;
2884;SDS011;54691;48.262;11.586;2022-11-20T13:59:40;1.22;;;0.60;;
2884;SDS011;54691;48.262;11.586;2022-11-20T14:03:20;1.10;;;0.70;;
2884;SDS011;54691;48.262;11.586;2022-11-20T14:14:02;6.60;;;1.40;;
2884;SDS011;54691;48.262;11.586;2022-11-20T14:17:30;2.00;;;1.10;;
2884;SDS011;54691;48.262;11.586;2022-11-20T14:21:00;3.45;;;0.93;;
2884;SDS011;54691;48.262;11.586;2022-11-20T14:28:03;1.82;;;1.10;;
2884;SDS011;54691;48.262;11.586;2022-11-20T14:38:52;1.85;;;0.90;;
2884;SDS011;54691;48.262;11.586;2022-11-20T14:42:46;2.05;;;1.40;;
2884;SDS011;54691;48.262;11.586;2022-11-20T14:46:43;2.90;;;0.70;;
2884;SDS011;54691;48.262;11.586;2022-11-20T14:50:24;1.50;;;0.75;;
2884;SDS011;54691;48.262;11.586;2022-11-20T14:54:24;1.12;;;0.70;;
2884;SDS011;54691;48.262;11.586;2022-11-20T14:57:54;1.05;;;0.70;;
2884;SDS011;54691;48.262;11.586;2022-11-20T15:09:36;1.92;;;0.65;;
2884;SDS011;54691;48.262;11.586;2022-11-20T15:16:57;1.62;;;0.57;;
2884;SDS011;54691;48.262;11.586;2022-11-20T15:20:32;0.80;;;0.50;;
2884;SDS011;54691;48.262;11.586;2022-11-20T15:28:00;1.20;;;0.47;;
2884;SDS011;54691;48.262;11.586;2022-11-20T15:35:18;0.40;;;0.40;;
2884;SDS011;54691;48.262;11.586;2022-11-20T15:46:23;2.45;;;0.50;;
2884;SDS011;54691;48.262;11.586;2022-11-20T16:50:10;2.12;;;0.82;;
2884;SDS011;54691;48.262;11.586;2022-11-20T16:57:09;4.17;;;0.57;;
2884;SDS011;54691;48.262;11.586;2022-11-20T17:04:07;2.92;;;1.50;;
2884;SDS011;54691;48.262;11.586;2022-11-20T17:11:18;3.22;;;0.75;;
2884;SDS011;54691;48.262;11.586;2022-11-20T17:18:38;3.12;;;0.98;;
2884;SDS011;54691;48.262;11.586;2022-11-20T17:22:36;3.58;;;1.20;;
2884;SDS011;54691;48.262;11.586;2022-11-20T17:33:10;1.60;;;0.82;;
2884;SDS011;54691;48.262;11.586;2022-11-20T17:53:46;3.50;;;1.07;;
2884;SDS011;54691;48.262;11.586;2022-11-20T18:13:01;5.20;;;2.20;;
2884;SDS011;54691;48.262;11.586;2022-11-20T18:17:26;13.70;;;4.30;;
2884;SDS011;54691;48.262;11.586;2022-11-20T18:28:10;5.42;;;2.83;;
2884;SDS011;54691;48.262;11.586;2022-11-20T18:36:32;6.25;;;3.05;;
2884;SDS011;54691;48.262;11.586;2022-11-20T18:54:06;9.60;;;4.08;;
2884;SDS011;54691;48.262;11.586;2022-11-20T19:02:57;19.65;;;6.30;;
2884;SDS011;54691;48.262;11.586;2022-11-20T19:10:22;8.75;;;4.33;;
2884;SDS011;54691;48.262;11.586;2022-11-20T20:11:48;12.45;;;4.30;;
2884;SDS011;54691;48.262;11.586;2022-11-20T20:22:30;9.68;;;3.35;;
2884;SDS011;54691;48.262;11.586;2022-11-20T20:29:41;6.75;;;2.80;;
2884;SDS011;54691;48.262;11.586;2022-11-20T20:51:25;21.70;;;5.40;;
2884;SDS011;54691;48.262;11.586;2022-11-20T21:02:04;8.93;;;2.98;;
2884;SDS011;54691;48.262;11.586;2022-11-20T21:09:00;7.83;;;2.25;;
2884;SDS011;54691;48.262;11.586;2022-11-20T21:19:34;2.00;;;1.30;;
2884;SDS011;54691;48.262;11.586;2022-11-20T21:26:31;3.30;;;2.42;;
2884;SDS011;54691;48.262;11.586;2022-11-20T21:33:34;3.52;;;1.62;;
2884;SDS011;54691;48.262;11.586;2022-11-20T21:40:27;8.55;;;2.45;;
2884;SDS011;54691;48.262;11.586;2022-11-20T21:47:31;3.42;;;1.80;;
2884;SDS011;54691;48.262;11.586;2022-11-20T21:58:00;1.30;;;0.95;;
2884;SDS011;54691;48.262;11.586;2022-11-20T22:01:38;2.40;;;0.73;;
2884;SDS011;54691;48.262;11.586;2022-11-20T22:08:37;1.70;;;0.70;;
2884;SDS011;54691;48.262;11.586;2022-11-20T22:15:34;1.12;;;0.78;;
2884;SDS011;54691;48.262;11.586;2022-11-20T22:22:31;2.17;;;1.42;;
2884;SDS011;54691;48.262;11.586;2022-11-20T22:29:28;0.90;;;0.60;;
2884;SDS011;54691;48.262;11.586;2022-11-20T22:36:26;2.87;;;0.62;;
2884;SDS011;54691;48.262;11.586;2022-11-20T22:40:07;1.17;;;0.65;;
2884;SDS011;54691;48.262;11.586;2022-11-20T22:47:06;2.42;;;1.20;;
2884;SDS011;54691;48.262;11.586;2022-11-20T22:54:06;5.05;;;0.80;;
2884;SDS011;54691;48.262;11.586;2022-11-20T23:01:14;1.07;;;0.70;;
2884;SDS011;54691;48.262;11.586;2022-11-20T23:04:43;0.50;;;0.50;;
2884;SDS011;54691;48.262;11.586;2022-11-20T23:11:40;12.63;;;1.42;;
2884;SDS011;54691;48.262;11.586;2022-11-20T23:18:37;1.60;;;0.55;;
2884;SDS011;54691;48.262;11.586;2022-11-20T23:25:34;0.62;;;0.40;;
2884;SDS011;54691;48.262;11.586;2022-11-20T23:32:31;0.33;;;0.30;;
2884;SDS011;54691;48.262;11.586;2022-11-20T23:39:28;1.72;;;0.37;;
2884;SDS011;54691;48.262;11.586;2022-11-20T23:46:39;0.30;;;0.20;;
2884;SDS011;54691;48.262;11.586;2022-11-20T23:53:38;0.23;;;0.23;;
